Time;durP1;ratioP1;P1;durP2;ratioP2;P2;SDS_P1;SDS_P2;PMS_P1;PMS_P2;Temp;Humidity;BMP_temperature;BMP_pressure;BME280_temperature;BME280_humidity;BME280_pressure;Samples;Min_cycle;Max_cycle;Signal;HPM_P1;HPM_P2
2022/04/09 00:01:03;;;;;;;9.52;1.45;;;5.00;99.90;;;;;;5015403;28;20041;-74
2022/04/09 00:03:28;;;;;;;8.50;1.30;;;5.10;99.90;;;;;;5015158;28;20190;-74
2022/04/09 00:05:54;;;;;;;4.88;1.45;;;5.20;99.90;;;;;;4999856;28;20103;-74
2022/04/09 00:08:20;;;;;;;12.05;2.78;;;5.10;99.90;;;;;;5015651;28;20041;-74
2022/04/09 00:10:46;;;;;;;8.70;1.40;;;5.10;99.90;;;;;;5014524;28;20037;-73
2022/04/09 00:13:11;;;;;;;8.68;1.55;;;5.20;99.90;;;;;;5000043;28;20044;-73
2022/04/09 00:15:37;;;;;;;9.98;1.48;;;5.30;99.90;;;;;;5006154;28;20065;-74
2022/04/09 00:18:03;;;;;;;6.93;1.80;;;5.30;99.90;;;;;;4980189;28;20045;-74
2022/04/09 00:20:28;;;;;;;9.43;1.70;;;5.10;99.90;;;;;;4995893;28;20570;-73
2022/04/09 00:22:54;;;;;;;9.82;1.75;;;5.10;99.90;;;;;;5014650;28;20050;-73
2022/04/09 00:25:24;;;;;;;5.28;1.30;;;5.00;99.90;;;;;;5016209;28;20560;-74
2022/04/09 00:27:50;;;;;;;9.90;2.33;;;5.00;99.90;;;;;;4998920;28;20103;-74
2022/04/09 00:30:16;;;;;;;7.70;1.52;;;5.00;99.90;;;;;;5015824;28;20048;-74
2022/04/09 00:32:42;;;;;;;9.80;1.60;;;5.00;99.90;;;;;;5009366;28;20038;-73
2022/04/09 00:35:08;;;;;;;7.85;1.77;;;5.00;99.90;;;;;;4995956;28;20049;-73
2022/04/09 00:37:41;;;;;;;8.55;1.38;;;4.90;99.90;;;;;;5009307;28;20067;-74
2022/04/09 00:40:07;;;;;;;7.00;1.73;;;5.00;99.90;;;;;;4999630;28;20041;-73
2022/04/09 00:42:33;;;;;;;10.02;1.65;;;4.90;99.90;;;;;;5014573;28;20049;-74
2022/04/09 00:44:59;;;;;;;9.13;1.60;;;4.90;99.90;;;;;;5015597;28;20029;-73
2022/04/09 00:47:24;;;;;;;7.70;1.40;;;4.90;99.90;;;;;;5014755;28;20041;-74
2022/04/09 00:49:50;;;;;;;7.30;1.40;;;4.80;99.90;;;;;;5015882;28;20073;-74
2022/04/09 00:52:17;;;;;;;6.43;1.48;;;4.80;99.90;;;;;;5014986;28;20048;-74
2022/04/09 00:54:44;;;;;;;11.98;1.90;;;4.80;99.90;;;;;;5014351;28;20045;-74
2022/04/09 00:57:11;;;;;;;6.47;1.30;;;4.80;99.90;;;;;;4999244;28;20041;-74
2022/04/09 00:59:41;;;;;;;7.45;1.70;;;4.80;99.90;;;;;;4997483;28;20087;-74
2022/04/09 01:02:08;;;;;;;5.82;1.55;;;4.90;99.90;;;;;;5014872;28;20396;-74
2022/04/09 01:04:35;;;;;;;8.45;1.50;;;5.00;99.90;;;;;;4996694;28;20076;-74
2022/04/09 01:07:02;;;;;;;6.20;1.30;;;5.00;99.90;;;;;;4997693;28;20044;-74
2022/04/09 01:09:28;;;;;;;5.95;1.58;;;5.00;99.90;;;;;;5014111;28;20076;-74
2022/04/09 01:11:55;;;;;;;7.30;1.35;;;5.00;99.90;;;;;;5008234;28;20038;-74
2022/04/09 01:14:20;;;;;;;5.22;1.30;;;5.00;99.90;;;;;;4983690;28;20088;-74
2022/04/09 01:16:46;;;;;;;5.85;1.42;;;4.90;99.90;;;;;;5005784;28;20045;-74
2022/04/09 01:19:12;;;;;;;6.13;1.10;;;5.00;99.90;;;;;;5003023;28;20041;-74
2022/04/09 01:21:39;;;;;;;8.98;1.27;;;4.80;99.90;;;;;;5001982;28;20103;-74
2022/04/09 01:24:05;;;;;;;7.65;1.08;;;4.80;99.90;;;;;;5019124;28;20055;-74
2022/04/09 01:26:31;;;;;;;5.25;1.50;;;4.80;99.90;;;;;;5018347;28;20057;-74
2022/04/09 01:28:58;;;;;;;7.35;1.30;;;4.80;99.90;;;;;;5019526;28;20424;-74
2022/04/09 01:31:23;;;;;;;5.90;1.30;;;4.80;99.90;;;;;;5018364;28;20094;-75
2022/04/09 01:33:49;;;;;;;4.80;1.00;;;4.80;99.90;;;;;;5018495;28;20549;-74
2022/04/09 01:36:14;;;;;;;6.63;1.35;;;4.80;99.90;;;;;;5002031;28;20513;-74
2022/04/09 01:38:41;;;;;;;4.88;1.13;;;4.80;99.90;;;;;;5019030;28;20045;-74
2022/04/09 01:41:06;;;;;;;4.50;1.00;;;4.80;99.90;;;;;;5001288;28;20045;-74
2022/04/09 01:43:32;;;;;;;5.00;1.05;;;4.70;99.90;;;;;;5017348;28;20045;-74
2022/04/09 01:45:58;;;;;;;3.40;0.90;;;4.80;99.90;;;;;;4997432;28;20044;-74
2022/04/09 01:48:23;;;;;;;4.28;0.90;;;4.70;99.90;;;;;;4995844;28;20033;-74
2022/04/09 01:50:49;;;;;;;5.38;1.23;;;4.70;99.90;;;;;;5005389;28;20060;-74
2022/04/09 01:53:15;;;;;;;6.78;1.20;;;4.60;99.90;;;;;;4996765;28;20049;-74
2022/04/09 01:55:40;;;;;;;4.55;1.00;;;4.60;99.90;;;;;;5002108;28;20041;-74
2022/04/09 01:58:06;;;;;;;4.85;1.15;;;4.50;99.90;;;;;;5002079;28;20044;-74
2022/04/09 02:00:32;;;;;;;4.20;1.08;;;4.40;99.90;;;;;;5001727;28;20128;-74
2022/04/09 02:02:57;;;;;;;6.22;1.20;;;4.30;99.90;;;;;;5002047;28;20045;-74
2022/04/09 02:05:24;;;;;;;6.47;1.27;;;4.30;99.90;;;;;;5001870;28;20088;-74
2022/04/09 02:07:51;;;;;;;4.22;1.17;;;4.40;99.90;;;;;;5018503;28;20041;-74
2022/04/09 02:10:18;;;;;;;3.55;0.90;;;4.30;99.90;;;;;;5011533;28;20490;-74
2022/04/09 02:12:44;;;;;;;8.40;1.50;;;4.30;99.90;;;;;;4982860;28;20073;-74
2022/04/09 02:15:12;;;;;;;7.57;1.10;;;4.30;99.90;;;;;;4998713;28;20053;-74
2022/04/09 02:17:38;;;;;;;5.55;1.20;;;4.40;99.90;;;;;;4982617;28;20072;-74
2022/04/09 02:20:06;;;;;;;7.07;1.38;;;4.30;99.90;;;;;;4998698;28;20052;-73
2022/04/09 02:22:35;;;;;;;4.72;1.25;;;4.20;99.90;;;;;;4981805;28;20418;-73
2022/04/09 02:25:05;;;;;;;5.18;1.40;;;4.20;99.90;;;;;;4997747;28;20108;-74
2022/04/09 02:27:31;;;;;;;7.32;1.30;;;4.20;99.90;;;;;;4982148;28;20538;-73
2022/04/09 02:29:57;;;;;;;8.95;1.92;;;4.20;99.90;;;;;;4998446;28;20056;-74
2022/04/09 02:32:23;;;;;;;7.13;1.20;;;4.30;99.90;;;;;;4998329;28;20038;-74
2022/04/09 02:34:52;;;;;;;5.47;1.20;;;4.40;99.90;;;;;;4982328;28;20125;-74
2022/04/09 02:37:18;;;;;;;6.00;1.20;;;4.40;99.90;;;;;;4982021;28;20048;-74
2022/04/09 02:39:43;;;;;;;6.53;1.60;;;4.50;99.90;;;;;;4998242;28;20188;-74
2022/04/09 02:42:09;;;;;;;5.60;1.30;;;4.40;99.90;;;;;;4998175;28;20112;-74
2022/04/09 02:44:34;;;;;;;5.88;1.52;;;4.40;99.90;;;;;;4998232;28;20444;-73
2022/04/09 02:47:00;;;;;;;5.07;1.20;;;4.30;99.90;;;;;;4990201;28;20064;-74
2022/04/09 02:49:26;;;;;;;6.38;1.30;;;4.30;99.90;;;;;;5018019;28;20485;-74
2022/04/09 02:51:51;;;;;;;6.50;1.67;;;4.20;99.90;;;;;;5017707;28;20041;-74
2022/04/09 02:54:17;;;;;;;5.43;1.27;;;4.20;99.90;;;;;;5017687;28;20049;-73
2022/04/09 02:56:49;;;;;;;7.07;1.40;;;4.10;99.90;;;;;;5001474;28;20041;-74
2022/04/09 02:59:14;;;;;;;5.82;1.13;;;4.10;99.90;;;;;;5017595;28;20041;-73
2022/04/09 03:01:42;;;;;;;5.57;1.40;;;4.10;99.90;;;;;;5001107;28;20049;-74
2022/04/09 03:04:08;;;;;;;4.97;1.05;;;4.00;99.90;;;;;;5017502;28;20493;-74
2022/04/09 03:06:33;;;;;;;6.13;1.58;;;4.00;99.90;;;;;;5000914;28;20038;-74
2022/04/09 03:08:59;;;;;;;8.02;1.55;;;4.00;99.90;;;;;;5000992;28;20068;-74
2022/04/09 03:11:25;;;;;;;6.18;1.50;;;4.00;99.90;;;;;;5001077;28;20396;-74
2022/04/09 03:13:51;;;;;;;5.95;1.30;;;4.00;99.90;;;;;;5017225;28;20037;-74
2022/04/09 03:16:16;;;;;;;4.90;1.20;;;4.00;99.90;;;;;;5017205;28;20037;-74
2022/04/09 03:18:42;;;;;;;8.23;1.40;;;3.90;99.90;;;;;;4994186;28;20124;-74
2022/04/09 03:21:07;;;;;;;6.13;1.40;;;4.00;99.90;;;;;;5011334;28;20493;-74
2022/04/09 03:23:33;;;;;;;7.57;1.25;;;4.00;99.90;;;;;;5016778;28;20486;-74
2022/04/09 03:25:59;;;;;;;9.90;1.50;;;4.10;99.90;;;;;;5000752;28;20176;-74
2022/04/09 03:28:24;;;;;;;7.82;1.40;;;4.10;99.90;;;;;;5013274;28;20037;-73
2022/04/09 03:30:50;;;;;;;7.25;1.30;;;4.00;99.90;;;;;;5016938;28;20132;-74
2022/04/09 03:33:16;;;;;;;9.93;1.50;;;4.00;99.90;;;;;;5014600;28;20129;-73
2022/04/09 03:35:42;;;;;;;8.05;1.70;;;4.00;99.90;;;;;;5003482;28;20501;-73
2022/04/09 03:38:12;;;;;;;6.03;1.33;;;4.10;99.90;;;;;;5016655;28;20092;-73
2022/04/09 03:40:38;;;;;;;6.18;1.60;;;4.10;99.90;;;;;;5016979;28;20041;-73
2022/04/09 03:43:04;;;;;;;7.15;1.45;;;4.20;99.90;;;;;;5002023;28;20050;-73
2022/04/09 03:45:30;;;;;;;6.60;1.40;;;4.20;99.90;;;;;;4997128;28;20402;-73
2022/04/09 03:47:55;;;;;;;4.53;1.20;;;4.20;99.90;;;;;;4980784;28;20042;-73
2022/04/09 03:50:21;;;;;;;6.40;1.45;;;4.40;99.90;;;;;;4996930;28;20044;-74
2022/04/09 03:52:48;;;;;;;6.53;1.30;;;4.20;99.90;;;;;;4996931;28;20509;-74
2022/04/09 03:55:14;;;;;;;6.68;1.15;;;4.10;99.90;;;;;;4994839;28;20049;-74
2022/04/09 03:57:40;;;;;;;7.50;1.17;;;4.20;99.90;;;;;;5016635;28;20398;-74
2022/04/09 04:00:07;;;;;;;5.82;1.40;;;4.10;99.90;;;;;;5016468;28;20045;-74
2022/04/09 04:02:32;;;;;;;5.13;1.02;;;4.10;99.90;;;;;;5016320;28;20087;-74
2022/04/09 04:05:03;;;;;;;7.15;1.23;;;4.10;99.90;;;;;;5016263;28;20041;-73
2022/04/09 04:07:32;;;;;;;5.57;1.20;;;4.20;99.90;;;;;;5003038;28;20050;-74
2022/04/09 04:10:06;;;;;;;7.25;1.25;;;4.20;99.90;;;;;;4972524;28;20025;-74
2022/04/09 04:12:32;;;;;;;8.43;1.23;;;4.10;99.90;;;;;;4988327;28;20141;-74
2022/04/09 04:14:57;;;;;;;9.57;1.42;;;4.10;99.90;;;;;;4994007;28;20124;-74
2022/04/09 04:17:23;;;;;;;6.35;1.30;;;4.10;99.90;;;;;;4973542;28;20034;-74
2022/04/09 04:19:49;;;;;;;8.73;1.45;;;4.10;99.90;;;;;;4978900;28;20037;-74
2022/04/09 04:22:14;;;;;;;3.95;1.02;;;4.00;99.90;;;;;;4974609;28;20041;-74
2022/04/09 04:24:40;;;;;;;6.15;1.20;;;4.00;99.90;;;;;;4991400;28;20049;-74
2022/04/09 04:27:06;;;;;;;5.50;1.08;;;4.10;99.90;;;;;;4971688;28;20178;-75
2022/04/09 04:29:32;;;;;;;5.55;1.13;;;4.00;99.90;;;;;;4988673;28;20058;-74
2022/04/09 04:31:58;;;;;;;7.80;1.27;;;3.90;99.90;;;;;;4988545;28;20045;-74
2022/04/09 04:34:24;;;;;;;5.40;1.30;;;3.90;99.90;;;;;;4986805;28;20042;-74
2022/04/09 04:36:49;;;;;;;5.55;1.02;;;4.00;99.90;;;;;;4987142;28;20118;-74
2022/04/09 04:39:15;;;;;;;6.55;1.17;;;4.00;99.90;;;;;;4973377;28;20060;-74
2022/04/09 04:41:41;;;;;;;9.07;1.20;;;4.00;99.90;;;;;;4986603;28;20390;-75
2022/04/09 04:44:07;;;;;;;5.90;1.20;;;4.00;99.90;;;;;;4970721;28;20065;-74
2022/04/09 04:46:33;;;;;;;5.35;1.58;;;4.00;99.90;;;;;;4988606;28;21312;-74
2022/04/09 04:48:59;;;;;;;5.35;1.25;;;4.00;99.90;;;;;;4984336;28;20166;-74
2022/04/09 04:51:25;;;;;;;7.90;1.35;;;4.00;99.90;;;;;;4976057;28;20545;-74
2022/04/09 04:53:50;;;;;;;5.13;1.05;;;4.10;99.90;;;;;;4973179;28;20045;-74
2022/04/09 04:56:16;;;;;;;3.25;0.82;;;4.10;99.90;;;;;;5010716;28;20037;-74
2022/04/09 04:58:41;;;;;;;8.27;1.25;;;4.10;99.90;;;;;;5005513;28;20033;-74
2022/04/09 05:01:07;;;;;;;3.70;1.00;;;4.00;99.90;;;;;;4978560;28;20046;-74
2022/04/09 05:03:35;;;;;;;6.00;1.27;;;4.00;99.90;;;;;;4989067;28;20120;-74
2022/04/09 05:06:00;;;;;;;5.03;0.95;;;4.00;99.90;;;;;;4972359;28;20091;-74
2022/04/09 05:08:26;;;;;;;10.95;1.08;;;4.00;99.90;;;;;;5008626;28;20037;-74
2022/04/09 05:10:52;;;;;;;6.00;1.10;;;4.00;99.90;;;;;;5014549;28;20033;-73
2022/04/09 05:13:17;;;;;;;5.57;1.20;;;4.10;99.90;;;;;;5015378;28;20037;-74
2022/04/09 05:15:43;;;;;;;7.55;1.23;;;4.00;99.90;;;;;;5035090;28;20497;-74
2022/04/09 05:18:08;;;;;;;7.63;1.02;;;4.10;99.90;;;;;;5020693;28;20072;-73
2022/04/09 05:20:34;;;;;;;4.97;1.00;;;4.00;99.90;;;;;;5015442;28;20041;-74
2022/04/09 05:23:01;;;;;;;7.38;1.30;;;4.00;99.90;;;;;;5011829;28;20053;-73
2022/04/09 05:25:31;;;;;;;6.05;1.25;;;4.00;99.90;;;;;;5011876;28;20041;-73
2022/04/09 05:28:01;;;;;;;9.85;1.20;;;4.00;99.90;;;;;;4992315;28;20046;-73
2022/04/09 05:30:26;;;;;;;9.13;2.05;;;4.10;99.90;;;;;;4992350;28;20050;-74
2022/04/09 05:32:52;;;;;;;5.05;1.30;;;4.10;99.90;;;;;;4976098;28;20509;-73
2022/04/09 05:35:17;;;;;;;7.00;1.42;;;4.00;99.90;;;;;;4992340;28;20043;-73
2022/04/09 05:37:48;;;;;;;5.82;1.17;;;4.20;99.90;;;;;;4992209;28;20048;-74
2022/04/09 05:40:14;;;;;;;6.75;1.40;;;4.20;99.90;;;;;;4992302;28;20078;-74
2022/04/09 05:42:40;;;;;;;8.77;1.20;;;4.30;99.90;;;;;;4992155;28;20046;-74
2022/04/09 05:45:06;;;;;;;6.30;1.20;;;4.20;99.90;;;;;;4976050;28;20042;-74
2022/04/09 05:47:32;;;;;;;7.88;1.40;;;4.20;99.90;;;;;;4992255;28;20112;-73
2022/04/09 05:49:58;;;;;;;11.32;1.23;;;4.30;99.90;;;;;;4992144;28;20410;-74
2022/04/09 05:52:24;;;;;;;9.88;1.40;;;4.40;99.90;;;;;;4975992;28;20046;-75
2022/04/09 05:54:49;;;;;;;6.25;1.55;;;4.40;99.90;;;;;;4996895;28;20118;-74
2022/04/09 05:57:16;;;;;;;12.65;2.15;;;4.40;99.90;;;;;;5004797;28;20052;-74
2022/04/09 05:59:41;;;;;;;8.00;2.00;;;4.40;99.90;;;;;;5015544;28;20428;-74
2022/04/09 06:02:07;;;;;;;12.15;1.90;;;4.40;99.90;;;;;;4998673;28;20046;-74
2022/04/09 06:04:33;;;;;;;7.93;1.50;;;4.50;99.90;;;;;;4997800;28;20084;-74
2022/04/09 06:07:00;;;;;;;9.07;1.40;;;4.60;99.90;;;;;;4993576;28;20033;-74
2022/04/09 06:09:26;;;;;;;12.98;2.17;;;4.80;99.90;;;;;;5010489;28;20034;-74
2022/04/09 06:11:52;;;;;;;6.40;1.35;;;4.70;99.90;;;;;;5011249;28;20038;-74
2022/04/09 06:14:17;;;;;;;8.23;1.20;;;4.70;99.90;;;;;;5014263;28;20041;-74
2022/04/09 06:16:44;;;;;;;7.82;1.70;;;4.70;99.90;;;;;;5014377;28;20042;-74
2022/04/09 06:19:10;;;;;;;9.68;2.03;;;4.70;99.90;;;;;;4997507;28;20399;-74
2022/04/09 06:21:35;;;;;;;9.50;1.70;;;4.70;99.90;;;;;;4994036;28;20038;-74
2022/04/09 06:24:02;;;;;;;6.43;1.95;;;4.60;99.90;;;;;;4994744;28;20148;-74
2022/04/09 06:26:28;;;;;;;7.07;1.50;;;4.70;99.90;;;;;;5001129;28;20409;-74
2022/04/09 06:28:54;;;;;;;8.57;1.80;;;4.60;99.90;;;;;;5014619;28;20038;-74
2022/04/09 06:31:19;;;;;;;9.32;1.25;;;4.60;99.90;;;;;;4996135;28;20795;-74
2022/04/09 06:33:45;;;;;;;6.20;1.33;;;4.70;99.90;;;;;;5013276;28;20128;-74
2022/04/09 06:36:11;;;;;;;10.35;1.33;;;4.70;99.90;;;;;;4993882;28;20042;-74
2022/04/09 06:38:37;;;;;;;6.20;1.25;;;4.70;99.90;;;;;;5011160;28;20112;-74
2022/04/09 06:41:02;;;;;;;9.15;1.30;;;4.80;99.90;;;;;;5001540;28;20042;-74
2022/04/09 06:43:29;;;;;;;13.35;1.90;;;4.90;99.90;;;;;;4979352;28;20046;-74
2022/04/09 06:45:55;;;;;;;11.23;1.80;;;4.90;99.90;;;;;;5013664;28;20048;-74
2022/04/09 06:48:21;;;;;;;7.10;1.80;;;5.20;99.90;;;;;;5013242;28;20030;-74
2022/04/09 06:50:46;;;;;;;8.95;1.70;;;5.20;99.90;;;;;;4997083;28;20034;-74
2022/04/09 06:53:12;;;;;;;10.40;1.60;;;5.40;99.90;;;;;;4993685;28;20057;-74
2022/04/09 06:55:38;;;;;;;6.28;1.48;;;5.50;99.90;;;;;;4989441;28;20038;-74
2022/04/09 06:58:04;;;;;;;8.73;2.13;;;5.70;99.90;;;;;;5012110;28;20046;-74
2022/04/09 07:00:32;;;;;;;7.68;1.55;;;5.80;99.90;;;;;;5010764;28;20046;-74
2022/04/09 07:02:58;;;;;;;10.73;1.98;;;6.00;99.90;;;;;;4998153;28;20414;-74
2022/04/09 07:05:23;;;;;;;9.82;2.55;;;6.10;99.90;;;;;;5012585;28;20037;-74
2022/04/09 07:07:49;;;;;;;9.25;1.45;;;6.10;99.90;;;;;;4996825;28;20038;-74
2022/04/09 07:10:15;;;;;;;6.90;1.67;;;6.30;99.90;;;;;;4996679;28;20049;-74
2022/04/09 07:12:41;;;;;;;6.88;1.80;;;6.30;99.90;;;;;;4996236;28;20049;-74
2022/04/09 07:15:07;;;;;;;6.88;2.08;;;6.30;99.90;;;;;;5012821;28;20375;-74
2022/04/09 07:17:33;;;;;;;14.75;1.92;;;6.40;99.90;;;;;;4995114;28;20061;-74
2022/04/09 07:20:03;;;;;;;9.20;1.70;;;6.50;99.90;;;;;;4996173;28;20437;-74
2022/04/09 07:22:29;;;;;;;10.10;2.17;;;6.50;99.90;;;;;;4995137;28;20066;-74
2022/04/09 07:24:55;;;;;;;12.27;2.25;;;6.60;99.90;;;;;;4996898;28;20077;-74
2022/04/09 07:27:21;;;;;;;8.63;1.50;;;6.70;99.90;;;;;;4984723;28;20487;-74
2022/04/09 07:29:47;;;;;;;9.68;1.27;;;6.70;99.90;;;;;;5016769;28;20033;-74
2022/04/09 07:32:13;;;;;;;8.77;2.00;;;6.90;99.90;;;;;;4999476;28;20378;-75
2022/04/09 07:34:38;;;;;;;9.50;1.45;;;6.90;99.90;;;;;;5016825;28;20045;-74
2022/04/09 07:37:04;;;;;;;7.95;1.75;;;7.10;99.90;;;;;;5015943;28;20044;-74
2022/04/09 07:39:30;;;;;;;9.45;1.40;;;7.10;99.90;;;;;;5016245;28;20125;-75
2022/04/09 07:41:56;;;;;;;7.32;1.20;;;7.10;99.90;;;;;;5015773;28;20037;-74
2022/04/09 07:44:22;;;;;;;4.68;1.20;;;7.20;99.90;;;;;;5016682;28;20592;-74
2022/04/09 07:46:48;;;;;;;6.47;1.10;;;7.10;99.90;;;;;;5016349;28;20041;-75
2022/04/09 07:49:14;;;;;;;9.30;1.70;;;7.10;99.90;;;;;;5015184;28;20560;-75
2022/04/09 07:51:40;;;;;;;6.80;1.23;;;7.10;99.90;;;;;;5014770;28;20045;-75
2022/04/09 07:54:06;;;;;;;6.95;1.40;;;7.10;99.90;;;;;;5016421;28;20033;-74
2022/04/09 07:56:32;;;;;;;10.52;1.63;;;7.20;99.90;;;;;;5015023;28;20033;-75
2022/04/09 07:58:57;;;;;;;7.15;1.40;;;7.00;99.90;;;;;;4996184;28;20045;-75
2022/04/09 08:01:23;;;;;;;6.63;1.27;;;7.10;99.90;;;;;;4997920;28;20486;-75
2022/04/09 08:03:49;;;;;;;10.43;1.33;;;7.10;99.90;;;;;;4999478;28;20516;-75
2022/04/09 08:06:15;;;;;;;7.50;1.15;;;7.00;99.90;;;;;;4999314;28;20045;-75
2022/04/09 08:08:40;;;;;;;8.77;1.45;;;7.00;99.90;;;;;;5007575;28;20676;-75
2022/04/09 08:11:06;;;;;;;9.40;1.58;;;7.10;99.90;;;;;;5016233;28;20033;-75
2022/04/09 08:13:33;;;;;;;11.18;2.05;;;7.30;99.90;;;;;;4999433;28;20037;-75
2022/04/09 08:15:59;;;;;;;7.80;1.17;;;7.40;99.90;;;;;;5016107;28;20065;-74
2022/04/09 08:18:25;;;;;;;7.22;1.20;;;7.60;99.90;;;;;;4999330;28;20069;-75
2022/04/09 08:20:51;;;;;;;9.00;2.15;;;7.60;99.90;;;;;;5015489;28;20144;-75
2022/04/09 08:23:16;;;;;;;8.00;1.60;;;7.70;99.90;;;;;;5015291;28;20060;-74
2022/04/09 08:25:42;;;;;;;5.80;1.40;;;7.70;99.90;;;;;;5012312;28;20033;-75
2022/04/09 08:28:07;;;;;;;7.90;1.17;;;7.80;99.90;;;;;;5010627;28;20034;-74
2022/04/09 08:30:33;;;;;;;8.05;1.23;;;7.90;99.90;;;;;;4998365;28;20125;-75
2022/04/09 08:33:04;;;;;;;11.75;1.52;;;8.00;99.90;;;;;;4999547;28;20041;-75
2022/04/09 08:35:30;;;;;;;7.15;1.35;;;8.10;99.90;;;;;;5012850;28;20055;-75
2022/04/09 08:37:56;;;;;;;9.13;1.52;;;8.00;99.90;;;;;;4991410;28;20116;-75
2022/04/09 08:40:23;;;;;;;10.20;1.70;;;8.20;99.90;;;;;;4996140;28;20042;-75
2022/04/09 08:42:49;;;;;;;6.47;1.40;;;8.20;99.90;;;;;;4995664;28;20046;-75
2022/04/09 08:45:18;;;;;;;11.18;2.65;;;8.20;99.90;;;;;;4995621;28;20088;-75
2022/04/09 08:47:44;;;;;;;6.88;1.73;;;8.30;99.90;;;;;;4995793;28;20038;-75
2022/04/09 08:50:12;;;;;;;9.52;1.65;;;8.30;99.90;;;;;;4995930;28;20042;-75
2022/04/09 08:52:42;;;;;;;7.28;1.60;;;8.40;99.90;;;;;;4995589;28;20133;-75
2022/04/09 08:55:09;;;;;;;9.60;1.48;;;8.30;99.90;;;;;;4992955;28;20494;-75
2022/04/09 08:57:35;;;;;;;11.32;1.58;;;8.10;99.90;;;;;;5015137;28;20033;-75
2022/04/09 09:00:10;;;;;;;10.98;1.60;;;8.00;99.90;;;;;;4995253;28;20165;-75
2022/04/09 09:02:37;;;;;;;10.13;1.38;;;8.10;99.90;;;;;;4995826;28;20046;-75
2022/04/09 09:05:03;;;;;;;10.20;1.27;;;8.30;99.90;;;;;;4995451;28;20125;-75
2022/04/09 09:07:29;;;;;;;7.97;1.40;;;8.60;99.90;;;;;;4979204;28;20049;-75
2022/04/09 09:10:14;;;;;;;9.48;1.58;;;8.80;99.90;;;;;;4995750;28;20038;-75
2022/04/09 09:12:40;;;;;;;11.23;1.90;;;8.90;99.90;;;;;;4997258;28;20037;-75
2022/04/09 09:15:06;;;;;;;8.60;1.33;;;9.00;99.90;;;;;;5014748;28;20064;-75
2022/04/09 09:17:32;;;;;;;12.75;1.77;;;8.80;99.90;;;;;;5015254;28;20052;-75
2022/04/09 09:19:59;;;;;;;10.05;1.48;;;8.80;99.90;;;;;;5014878;28;20041;-75
2022/04/09 09:22:37;;;;;;;11.02;1.60;;;8.70;99.90;;;;;;5014927;28;20441;-74
2022/04/09 09:25:05;;;;;;;8.68;1.67;;;8.40;99.90;;;;;;4998996;28;20124;-75
2022/04/09 09:27:31;;;;;;;9.20;1.40;;;8.10;99.90;;;;;;4998390;28;20041;-75
2022/04/09 09:29:57;;;;;;;7.38;1.27;;;7.80;99.90;;;;;;5014891;28;20401;-75
2022/04/09 09:32:28;;;;;;;7.18;0.98;;;7.50;99.90;;;;;;4999102;28;20080;-75
2022/04/09 09:34:55;;;;;;;8.18;1.10;;;7.60;99.90;;;;;;5003099;28;20382;-76
2022/04/09 09:37:24;;;;;;;7.93;0.98;;;7.40;99.90;;;;;;5017208;28;20699;-74
2022/04/09 09:39:50;;;;;;;8.07;1.30;;;7.20;99.90;;;;;;4993530;28;20410;-76
2022/04/09 09:42:24;;;;;;;4.22;0.95;;;7.20;99.90;;;;;;4990634;28;20045;-75
2022/04/09 09:44:50;;;;;;;8.38;1.27;;;7.10;99.90;;;;;;4996412;28;20136;-74
2022/04/09 09:47:17;;;;;;;10.45;2.10;;;7.00;99.90;;;;;;5018596;28;20042;-74
2022/04/09 09:49:53;;;;;;;7.22;1.17;;;7.00;99.90;;;;;;5019135;28;20393;-75
2022/04/09 09:52:24;;;;;;;10.63;1.50;;;7.30;99.90;;;;;;5018203;28;20124;-75
2022/04/09 09:55:01;;;;;;;11.75;1.60;;;7.60;99.90;;;;;;4999970;28;20069;-75
2022/04/09 09:57:28;;;;;;;8.48;1.25;;;7.90;99.90;;;;;;5016539;28;20038;-75
2022/04/09 09:59:56;;;;;;;10.77;1.63;;;8.10;99.90;;;;;;5013280;28;20044;-75
2022/04/09 10:02:22;;;;;;;7.78;1.33;;;8.20;99.90;;;;;;5010959;28;20099;-75
2022/04/09 10:04:49;;;;;;;11.05;1.80;;;8.50;99.90;;;;;;5017293;28;20052;-75
2022/04/09 10:07:15;;;;;;;10.45;1.58;;;8.80;99.90;;;;;;5016522;28;20124;-75
2022/04/09 10:09:41;;;;;;;9.40;1.42;;;8.70;99.90;;;;;;5001790;28;20639;-74
2022/04/09 10:12:12;;;;;;;8.93;1.65;;;8.70;99.90;;;;;;5017261;28;20116;-75
2022/04/09 10:14:40;;;;;;;5.23;1.17;;;8.40;99.90;;;;;;5016729;28;20044;-75
2022/04/09 10:17:06;;;;;;;9.57;1.65;;;8.10;99.90;;;;;;5000835;28;20391;-75
2022/04/09 10:19:32;;;;;;;7.55;1.25;;;7.90;99.90;;;;;;5017068;28;20045;-75
2022/04/09 10:21:58;;;;;;;9.10;1.00;;;7.70;99.90;;;;;;5013373;28;20088;-74
2022/04/09 10:24:26;;;;;;;6.75;0.90;;;7.60;99.90;;;;;;5012304;28;20057;-75
2022/04/09 10:26:54;;;;;;;8.20;1.05;;;7.50;99.90;;;;;;5011026;28;20038;-75
2022/04/09 10:29:20;;;;;;;6.78;0.93;;;7.50;99.90;;;;;;4998138;28;20120;-74
2022/04/09 10:31:52;;;;;;;4.13;0.73;;;7.80;99.90;;;;;;5012242;28;20137;-75
2022/04/09 10:34:20;;;;;;;;;;;8.00;99.90;;;;;;5014803;28;20049;-75
2022/04/09 10:36:45;;;;;;;3.30;0.60;;;8.20;99.90;;;;;;5012690;28;20012;-74
2022/04/09 10:39:21;;;;;;;4.70;0.68;;;8.30;99.90;;;;;;4997980;28;20074;-74
2022/04/09 10:41:48;;;;;;;3.30;0.60;;;8.50;99.90;;;;;;5010641;28;20096;-75
2022/04/09 10:44:42;;;;;;;4.13;0.70;;;8.70;99.90;;;;;;4996791;28;20037;-75
2022/04/09 10:47:10;;;;;;;6.60;1.30;;;8.90;99.90;;;;;;4994076;28;20034;-74
2022/04/09 10:49:37;;;;;;;5.30;1.00;;;9.00;99.90;;;;;;5004667;28;20397;-74
2022/04/09 10:52:11;;;;;;;4.32;1.10;;;8.90;99.90;;;;;;4993276;28;20443;-74
2022/04/09 10:54:38;;;;;;;5.43;0.80;;;9.10;99.90;;;;;;5014167;28;20438;-74
2022/04/09 10:57:09;;;;;;;6.57;0.90;;;9.10;99.90;;;;;;5013954;28;20486;-74
2022/04/09 10:59:36;;;;;;;5.15;0.82;;;9.10;99.90;;;;;;5000408;28;20039;-74
2022/04/09 11:02:04;;;;;;;5.70;0.90;;;8.90;99.90;;;;;;5007725;28;20041;-74
2022/04/09 11:04:34;;;;;;;7.32;1.00;;;8.80;99.90;;;;;;4997194;28;20038;-74
2022/04/09 11:07:08;;;;;;;4.50;0.88;;;8.60;99.90;;;;;;4995398;28;20399;-74
2022/04/09 11:09:50;;;;;;;5.97;0.77;;;8.40;99.90;;;;;;5009130;28;20053;-74
2022/04/09 11:12:38;;;;;;;5.45;1.10;;;8.20;99.90;;;;;;4999621;28;20038;-74
2022/04/09 11:15:08;;;;;;;4.90;0.95;;;8.30;99.90;;;;;;4988171;28;20041;-74
2022/04/09 11:17:48;;;;;;;7.47;0.95;;;8.30;99.90;;;;;;5019691;28;20092;-74
2022/04/09 11:20:18;;;;;;;6.28;1.08;;;8.50;99.90;;;;;;5010627;28;20042;-74
2022/04/09 11:22:52;;;;;;;7.53;0.98;;;8.50;99.90;;;;;;4999183;28;20069;-74
2022/04/09 11:25:29;;;;;;;7.53;1.13;;;8.40;99.90;;;;;;4990233;28;20052;-74
2022/04/09 11:28:13;;;;;;;5.60;1.02;;;8.30;99.90;;;;;;4998920;28;20478;-74
2022/04/09 11:30:52;;;;;;;5.88;0.90;;;8.10;99.90;;;;;;5015353;28;20033;-74
2022/04/09 11:33:18;;;;;;;5.72;1.00;;;8.00;99.90;;;;;;5014914;28;20043;-74
2022/04/09 11:35:43;;;;;;;6.50;1.20;;;8.10;99.90;;;;;;5011461;28;20485;-74
2022/04/09 11:38:10;;;;;;;5.35;0.95;;;8.00;99.90;;;;;;5000057;28;20442;-74
2022/04/09 11:40:35;;;;;;;7.72;1.80;;;8.10;99.90;;;;;;5015349;28;20069;-74
2022/04/09 11:43:01;;;;;;;6.60;1.25;;;8.30;99.90;;;;;;5014546;28;20073;-74
2022/04/09 11:45:29;;;;;;;6.85;0.90;;;8.30;99.90;;;;;;4997563;28;20049;-74
2022/04/09 11:48:01;;;;;;;6.20;1.25;;;8.20;99.90;;;;;;4999549;28;20164;-74
2022/04/09 11:50:31;;;;;;;13.15;1.45;;;8.10;99.90;;;;;;5015081;28;20033;-74
2022/04/09 11:53:09;;;;;;;7.10;1.02;;;8.00;99.90;;;;;;5014989;28;20115;-74
2022/04/09 11:55:35;;;;;;;6.40;1.15;;;7.90;99.90;;;;;;5016084;28;20068;-73
2022/04/09 11:58:00;;;;;;;7.55;1.10;;;7.80;99.90;;;;;;5014663;28;20123;-73
2022/04/09 12:00:27;;;;;;;8.48;1.58;;;7.70;99.90;;;;;;5004624;28;20494;-73
2022/04/09 12:02:53;;;;;;;6.53;1.02;;;7.80;99.90;;;;;;4998378;28;20057;-73
2022/04/09 12:05:20;;;;;;;5.75;1.00;;;8.00;99.90;;;;;;4999216;28;20033;-73
2022/04/09 12:07:47;;;;;;;5.20;0.73;;;8.30;99.90;;;;;;5007396;28;20052;-73
2022/04/09 12:10:26;;;;;;;7.63;1.10;;;8.60;99.90;;;;;;4997615;28;20037;-73
2022/04/09 12:13:00;;;;;;;2.45;0.70;;;8.60;99.90;;;;;;5012090;28;20127;-73
2022/04/09 12:15:28;;;;;;;5.82;0.80;;;8.70;99.90;;;;;;5009058;28;20124;-73
2022/04/09 12:17:53;;;;;;;5.05;1.50;;;8.60;99.90;;;;;;5014593;28;20448;-74
2022/04/09 12:20:32;;;;;;;5.65;1.10;;;8.50;99.90;;;;;;5015362;28;20065;-74
2022/04/09 12:22:58;;;;;;;7.55;1.17;;;8.30;99.90;;;;;;4993969;28;20112;-73
2022/04/09 12:25:44;;;;;;;9.18;1.88;;;8.00;99.90;;;;;;4994983;28;20042;-73
2022/04/09 12:28:30;;;;;;;6.13;0.98;;;7.90;99.90;;;;;;5012637;28;20425;-73
2022/04/09 12:30:56;;;;;;;4.82;1.20;;;7.80;99.90;;;;;;5011595;28;20038;-73
2022/04/09 12:33:23;;;;;;;6.07;1.20;;;8.00;99.90;;;;;;4995736;28;20064;-73
2022/04/09 12:35:52;;;;;;;6.60;0.90;;;8.30;99.90;;;;;;4993798;28;20461;-73
2022/04/09 12:38:38;;;;;;;6.18;0.90;;;8.60;99.90;;;;;;5011956;28;20087;-73
2022/04/09 12:41:06;;;;;;;4.28;0.88;;;8.80;99.90;;;;;;4995844;28;20124;-73
2022/04/09 12:43:40;;;;;;;5.70;0.90;;;9.00;99.90;;;;;;4994928;28;20041;-73
2022/04/09 12:46:12;;;;;;;4.82;0.80;;;9.20;99.90;;;;;;5012396;28;20125;-73
2022/04/09 12:48:44;;;;;;;3.22;0.75;;;9.40;99.90;;;;;;5011785;28;20046;-74
2022/04/09 12:51:14;;;;;;;3.97;0.65;;;9.50;99.90;;;;;;5012389;28;20133;-73
2022/04/09 12:53:42;;;;;;;4.85;0.57;;;9.50;99.90;;;;;;5011766;28;20042;-74
2022/04/09 12:56:10;;;;;;;3.45;0.70;;;9.50;99.90;;;;;;4995272;28;20084;-73